createdAt,value
2019-04-20T03:01:23.608Z,2.40
2019-04-20T03:03:42.745Z,2.00
2019-04-20T03:06:18.471Z,2.20
2019-04-20T03:08:56.349Z,2.30
2019-04-20T03:11:33.311Z,2.20
2019-04-20T03:13:55.675Z,2.10
2019-04-20T03:16:24.312Z,2.20
2019-04-20T03:18:51.472Z,2.00
2019-04-20T03:21:27.255Z,2.00
2019-04-20T03:23:59.628Z,2.20
2019-04-20T03:26:31.267Z,2.10
2019-04-20T03:28:54.248Z,2.07
2019-04-20T03:34:23.034Z,1.97
2019-04-20T03:36:41.541Z,2.20
2019-04-20T03:39:01.480Z,2.07
2019-04-20T03:41:21.903Z,2.27
2019-04-20T03:43:41.778Z,2.10
2019-04-20T03:46:14.360Z,2.20
2019-04-20T03:48:54.761Z,1.83
2019-04-20T03:51:45.575Z,2.00
2019-04-20T03:54:08.542Z,1.87
2019-04-20T03:56:54.533Z,2.00
2019-04-20T03:59:27.975Z,2.00
2019-04-20T04:04:59.098Z,1.93
2019-04-20T04:07:19.550Z,1.70
2019-04-20T04:10:03.326Z,1.90
2019-04-20T04:12:49.826Z,2.57
2019-04-20T04:15:19.000Z,1.97
2019-04-20T04:17:48.675Z,2.03
2019-04-20T04:20:20.637Z,2.27
2019-04-20T04:23:07.392Z,2.07
2019-04-20T04:25:29.779Z,1.80
2019-04-20T04:28:01.714Z,2.40
2019-04-20T04:30:32.084Z,2.13
2019-04-20T04:33:32.171Z,2.40
2019-04-20T04:35:29.802Z,1.80
2019-04-20T04:38:09.455Z,2.07
2019-04-20T04:40:44.391Z,1.70
2019-04-20T04:43:10.188Z,2.20
2019-04-20T04:45:20.113Z,2.10
2019-04-20T04:47:47.490Z,1.70
2019-04-20T04:50:22.822Z,1.50
2019-04-20T04:52:58.671Z,2.10
2019-04-20T04:55:27.343Z,1.90
2019-04-20T04:57:47.375Z,1.60
2019-04-20T05:00:21.834Z,1.83
2019-04-20T05:02:50.612Z,1.80
2019-04-20T05:05:41.316Z,1.70
2019-04-20T05:08:01.918Z,1.60
2019-04-20T05:10:20.730Z,1.70
2019-04-20T05:12:51.287Z,1.50
2019-04-20T05:15:32.394Z,1.90
2019-04-20T05:18:07.184Z,1.70
2019-04-20T05:20:43.833Z,1.80
2019-04-20T05:23:24.375Z,1.70
2019-04-20T05:26:12.571Z,1.70
2019-04-20T05:28:30.918Z,1.80
2019-04-20T05:30:59.506Z,1.80
2019-04-20T05:33:40.469Z,1.67
2019-04-20T05:36:11.728Z,1.50
2019-04-20T05:38:49.932Z,1.87
2019-04-20T05:41:13.944Z,1.87
2019-04-20T05:43:47.051Z,3.87
2019-04-20T05:46:22.120Z,2.73
2019-04-20T05:48:50.878Z,2.53
2019-04-20T05:51:26.904Z,2.23
2019-04-20T05:53:50.070Z,2.37
2019-04-20T05:56:20.218Z,1.80
2019-04-20T05:58:45.316Z,1.90
2019-04-20T06:01:22.406Z,1.80
2019-04-20T06:03:48.772Z,1.90
2019-04-20T06:06:21.806Z,1.77
2019-04-20T06:08:53.974Z,1.90
2019-04-20T06:11:21.170Z,1.87
2019-04-20T06:13:48.657Z,1.93
2019-04-20T06:16:42.293Z,1.80
2019-04-20T06:19:15.193Z,2.00
2019-04-20T06:21:37.743Z,2.23
2019-04-20T06:24:20.799Z,1.90
2019-04-20T06:26:59.436Z,1.80
2019-04-20T06:29:23.588Z,2.10
2019-04-20T06:31:58.090Z,1.90
2019-04-20T06:34:33.125Z,1.83
2019-04-20T06:37:09.998Z,1.90
2019-04-20T06:39:48.772Z,1.90
2019-04-20T06:49:33.152Z,1.73
2019-04-20T06:52:12.758Z,1.63
2019-04-20T06:54:48.698Z,1.43
2019-04-20T06:57:28.032Z,1.43
2019-04-20T06:59:52.326Z,1.20
2019-04-20T07:05:26.035Z,1.67
2019-04-20T07:07:36.024Z,1.30
2019-04-20T07:10:05.181Z,1.47
2019-04-20T07:12:20.767Z,1.40
2019-04-20T07:14:43.965Z,1.50
2019-04-20T07:17:36.060Z,1.40
2019-04-20T07:19:58.869Z,1.50
2019-04-20T07:22:39.164Z,1.40
2019-04-20T07:25:06.346Z,1.40
2019-04-20T07:27:46.496Z,1.43
2019-04-20T07:30:07.934Z,1.57
2019-04-20T07:32:42.684Z,1.30
2019-04-20T07:35:09.883Z,1.60
2019-04-20T07:38:05.992Z,1.40
2019-04-20T07:40:10.446Z,1.60
2019-04-20T07:42:40.762Z,1.40
2019-04-20T07:45:16.872Z,1.50
2019-04-20T07:50:04.600Z,1.50
2019-04-20T07:52:33.013Z,1.50
2019-04-20T07:55:30.094Z,1.80
2019-04-20T07:57:35.411Z,1.50
2019-04-20T08:00:08.416Z,1.47
2019-04-20T08:03:03.571Z,1.50
2019-04-20T08:05:36.301Z,1.60
2019-04-20T08:08:14.906Z,1.50
2019-04-20T08:10:42.130Z,1.30
2019-04-20T08:13:27.438Z,1.50
2019-04-20T08:18:21.421Z,1.43
2019-04-20T08:20:47.715Z,1.53
2019-04-20T08:23:17.594Z,1.63
2019-04-20T08:25:39.560Z,1.40
2019-04-20T08:28:22.667Z,1.43
2019-04-20T08:30:59.440Z,1.60
2019-04-20T08:33:54.907Z,1.30
2019-04-20T08:36:18.156Z,1.60
2019-04-20T08:41:12.882Z,1.33
2019-04-20T08:43:54.025Z,1.47
2019-04-20T08:46:21.945Z,1.60
2019-04-20T08:48:46.795Z,1.50
2019-04-20T08:51:24.352Z,1.60
2019-04-20T08:53:50.712Z,1.50
2019-04-20T08:56:10.806Z,1.53
2019-04-20T08:58:27.353Z,1.70
2019-04-20T09:01:01.243Z,1.60
2019-04-20T09:03:32.223Z,1.60
2019-04-20T09:06:03.227Z,1.50
2019-04-20T09:08:30.848Z,1.70
2019-04-20T09:11:14.422Z,1.60
2019-04-20T09:13:35.314Z,1.40
2019-04-20T09:15:55.938Z,1.40
2019-04-20T09:18:44.243Z,1.37
2019-04-20T09:21:13.726Z,1.63
2019-04-20T09:23:57.715Z,1.70
2019-04-20T09:26:29.718Z,2.07
2019-04-20T09:28:55.638Z,1.40
2019-04-20T09:31:40.928Z,1.50
2019-04-20T09:34:25.983Z,1.40
2019-04-20T09:37:09.778Z,1.30
2019-04-20T09:39:31.601Z,1.50
2019-04-20T09:42:01.287Z,1.50
2019-04-20T09:44:31.467Z,1.40
2019-04-20T09:46:58.162Z,1.90
2019-04-20T09:49:41.384Z,1.60
2019-04-20T09:52:11.265Z,1.47
2019-04-20T09:54:41.611Z,2.10
2019-04-20T09:57:13.403Z,1.30
2019-04-20T09:59:44.679Z,1.47
2019-04-20T10:02:07.096Z,1.70
2019-04-20T10:04:25.872Z,1.77
2019-04-20T10:06:55.248Z,2.47
2019-04-20T10:09:28.041Z,1.50
2019-04-20T10:11:53.690Z,1.50
2019-04-20T10:14:22.640Z,1.30
2019-04-20T10:16:51.811Z,1.40
2019-04-20T10:19:25.167Z,1.40
2019-04-20T10:21:50.734Z,1.40
2019-04-20T10:24:19.127Z,1.47
2019-04-20T10:26:48.258Z,1.47
2019-04-20T10:29:17.469Z,1.40
2019-04-20T10:31:50.469Z,1.67
2019-04-20T10:34:16.047Z,1.50
2019-04-20T10:36:46.070Z,1.50
2019-04-20T10:39:16.230Z,1.43
2019-04-20T10:41:50.293Z,1.50
2019-04-20T10:44:14.727Z,1.47
2019-04-20T10:46:43.099Z,1.37
2019-04-20T10:49:11.497Z,1.50
2019-04-20T10:51:40.107Z,1.60
2019-04-20T10:54:08.716Z,1.73
2019-04-20T10:56:37.357Z,1.60
2019-04-20T10:59:05.744Z,1.50
2019-04-20T11:01:34.102Z,1.60
2019-04-20T11:04:03.003Z,1.60
2019-04-20T11:06:32.363Z,1.63
2019-04-20T11:09:00.742Z,1.50
2019-04-20T11:11:31.907Z,1.67
2019-04-20T11:14:06.581Z,1.33
2019-04-20T11:16:30.639Z,1.50
2019-04-20T11:18:59.050Z,1.30
2019-04-20T11:21:28.282Z,1.40
2019-04-20T11:23:56.699Z,1.60
2019-04-20T11:26:26.357Z,1.60
2019-04-20T11:28:55.887Z,1.70
2019-04-20T11:31:26.791Z,1.40
2019-04-20T11:33:54.446Z,1.30
2019-04-20T11:36:23.256Z,1.70
2019-04-20T11:38:53.030Z,1.70
2019-04-20T11:41:26.080Z,1.60
2019-04-20T11:43:51.834Z,1.50
2019-04-20T11:46:20.684Z,1.60
2019-04-20T11:48:49.571Z,1.80
2019-04-20T11:51:18.980Z,1.70
2019-04-20T11:53:48.163Z,1.70
2019-04-20T11:56:21.250Z,1.40
2019-04-20T11:58:47.015Z,1.73
2019-04-20T12:01:39.244Z,1.70
2019-04-20T12:04:09.274Z,1.70
2019-04-20T12:06:29.012Z,1.70
2019-04-20T12:08:58.878Z,1.73
2019-04-20T12:11:39.653Z,1.70
2019-04-20T12:13:58.547Z,1.77
2019-04-20T12:16:27.825Z,1.70
2019-04-20T12:18:56.755Z,1.60
2019-04-20T12:21:26.416Z,1.63
2019-04-20T12:23:56.103Z,1.60
2019-04-20T12:26:24.902Z,1.53
2019-04-20T12:28:53.819Z,1.80
2019-04-20T12:31:24.746Z,1.57
2019-04-20T12:33:52.602Z,1.57
2019-04-20T12:36:20.931Z,1.70
2019-04-20T12:38:49.307Z,1.90
2019-04-20T12:41:18.050Z,1.50
2019-04-20T12:43:47.720Z,1.60
2019-04-20T12:46:18.395Z,1.60
2019-04-20T12:48:47.298Z,1.60
2019-04-20T12:51:15.836Z,1.70
2019-04-20T12:53:44.549Z,1.70
2019-04-20T12:56:12.980Z,1.40
2019-04-20T12:58:43.396Z,2.13
2019-04-20T13:01:12.202Z,1.60
2019-04-20T13:03:41.555Z,1.57
2019-04-20T13:06:10.004Z,1.70
2019-04-20T13:08:42.212Z,1.73
2019-04-20T13:11:10.962Z,1.67
2019-04-20T13:13:52.400Z,1.87
2019-04-20T13:16:26.111Z,1.73
2019-04-20T13:18:57.231Z,2.10
2019-04-20T13:21:26.835Z,2.10
2019-04-20T13:23:56.390Z,1.63
2019-04-20T13:26:25.150Z,1.60
2019-04-20T13:28:54.999Z,1.70
2019-04-20T13:31:24.095Z,2.23
2019-04-20T13:33:52.487Z,2.20
2019-04-20T13:36:22.012Z,1.90
2019-04-20T13:38:50.450Z,2.13
2019-04-20T13:41:19.822Z,2.70
2019-04-20T13:43:48.307Z,2.10
2019-04-20T13:46:16.663Z,1.83
2019-04-20T13:48:45.046Z,2.00
2019-04-20T13:51:14.493Z,2.23
2019-04-20T13:53:43.359Z,2.50
2019-04-20T13:56:13.754Z,2.17
2019-04-20T13:58:47.778Z,2.00
2019-04-20T14:01:20.978Z,1.90
2019-04-20T14:03:51.007Z,1.87
2019-04-20T14:06:20.386Z,1.67
2019-04-20T14:08:49.463Z,1.70
2019-04-20T14:11:17.826Z,1.80
2019-04-20T14:13:53.562Z,2.10
2019-04-20T14:16:16.811Z,1.80
2019-04-20T14:18:45.196Z,1.80
2019-04-20T14:21:14.209Z,1.90
2019-04-20T14:23:43.207Z,1.80
2019-04-20T14:26:12.654Z,1.70
2019-04-20T14:28:41.067Z,1.73
2019-04-20T14:31:09.878Z,1.70
2019-04-20T14:33:39.123Z,1.60
2019-04-20T14:36:08.672Z,2.10
2019-04-20T14:38:38.323Z,2.03
2019-04-20T14:41:06.763Z,2.00
2019-04-20T14:43:36.429Z,1.93
2019-04-20T14:46:05.214Z,1.80
2019-04-20T14:48:34.491Z,1.60
2019-04-20T14:51:03.545Z,1.83
2019-04-20T14:53:31.950Z,1.80
2019-04-20T14:56:01.745Z,1.97
2019-04-20T14:58:42.128Z,1.87
2019-04-20T15:01:16.383Z,2.00
2019-04-20T15:04:00.209Z,2.03
2019-04-20T15:06:23.453Z,1.80
2019-04-20T15:08:52.543Z,2.37
2019-04-20T15:11:20.989Z,2.03
2019-04-20T15:13:49.350Z,2.10
2019-04-20T15:16:17.723Z,1.63
2019-04-20T15:18:49.141Z,1.80
2019-04-20T15:21:21.979Z,1.93
2019-04-20T15:23:51.263Z,2.13
2019-04-20T15:26:20.436Z,2.20
2019-04-20T15:28:48.851Z,2.70
2019-04-20T15:31:18.417Z,2.00
2019-04-20T15:33:46.762Z,2.43
2019-04-20T15:36:15.929Z,1.70
2019-04-20T15:38:45.069Z,1.93
2019-04-20T15:41:15.520Z,2.10
2019-04-20T15:43:43.622Z,2.00
2019-04-20T15:46:13.032Z,2.10
2019-04-20T15:48:41.791Z,1.97
2019-04-20T15:51:10.123Z,1.77
2019-04-20T15:53:39.732Z,1.50
2019-04-20T15:56:11.254Z,2.20
2019-04-20T15:58:38.704Z,1.57
2019-04-20T16:01:08.273Z,1.90
2019-04-20T16:03:41.370Z,1.82
2019-04-20T16:06:11.542Z,1.80
2019-04-20T16:08:41.945Z,1.72
2019-04-20T16:11:11.279Z,2.00
2019-04-20T16:13:44.029Z,2.00
2019-04-20T16:16:10.087Z,1.72
2019-04-20T16:18:39.195Z,1.70
2019-04-20T16:21:13.273Z,2.08
2019-04-20T16:23:48.600Z,2.15
2019-04-20T16:26:21.820Z,1.90
2019-04-20T16:28:50.279Z,2.40
2019-04-20T16:31:18.634Z,1.82
2019-04-20T16:33:47.095Z,1.87
2019-04-20T16:36:16.518Z,1.92
2019-04-20T16:38:45.592Z,2.08
2019-04-20T16:41:14.630Z,2.22
2019-04-20T16:43:44.715Z,2.00
2019-04-20T16:46:13.161Z,1.92
2019-04-20T16:48:42.151Z,2.10
2019-04-20T16:51:10.978Z,2.40
2019-04-20T16:53:39.643Z,2.40
2019-04-20T16:56:08.613Z,2.40
2019-04-20T16:58:37.898Z,2.52
2019-04-20T17:01:07.713Z,2.15
2019-04-20T17:03:48.891Z,2.40
2019-04-20T17:06:06.425Z,2.52
2019-04-20T17:08:34.781Z,2.72
2019-04-20T17:11:03.488Z,2.77
2019-04-20T17:13:40.512Z,2.45
2019-04-20T17:16:02.259Z,2.65
2019-04-20T17:18:31.835Z,2.45
2019-04-20T17:21:07.256Z,2.75
2019-04-20T17:23:31.113Z,2.80
2019-04-20T17:26:01.989Z,2.30
2019-04-20T17:28:35.310Z,2.90
2019-04-20T17:31:21.917Z,2.40
2019-04-20T17:34:02.594Z,2.80
2019-04-20T17:36:26.187Z,2.98
2019-04-20T17:38:54.975Z,2.42
2019-04-20T17:41:44.606Z,2.80
2019-04-20T17:44:09.638Z,2.70
2019-04-20T17:46:35.818Z,2.93
2019-04-20T17:49:09.620Z,2.87
2019-04-20T17:51:47.293Z,3.10
2019-04-20T17:54:12.968Z,2.70
2019-04-20T17:56:42.526Z,2.70
2019-04-20T17:59:12.355Z,2.70
2019-04-20T18:02:11.857Z,2.80
2019-04-20T18:05:08.473Z,2.87
2019-04-20T18:07:18.308Z,3.10
2019-04-20T18:09:49.417Z,3.03
2019-04-20T18:12:06.251Z,2.43
2019-04-20T18:14:46.666Z,2.90
2019-04-20T18:17:29.301Z,3.07
2019-04-20T18:20:05.074Z,3.00
2019-04-20T18:22:34.090Z,3.07
2019-04-20T18:25:24.816Z,2.90
2019-04-20T18:27:53.646Z,3.40
2019-04-20T18:30:18.614Z,3.40
2019-04-20T18:32:35.895Z,3.60
2019-04-20T18:35:16.365Z,3.00
2019-04-20T18:37:52.503Z,3.70
2019-04-20T18:40:26.657Z,3.40
2019-04-20T18:42:49.287Z,3.17
2019-04-20T18:45:29.674Z,3.40
2019-04-20T18:48:03.942Z,3.50
2019-04-20T18:50:22.447Z,3.00
2019-04-20T18:52:45.417Z,3.63
2019-04-20T18:55:20.096Z,3.60
2019-04-20T18:57:44.664Z,3.50
2019-04-20T19:00:21.546Z,3.70
2019-04-20T19:02:49.146Z,3.47
2019-04-20T19:05:15.810Z,3.50
2019-04-20T19:07:52.582Z,3.40
2019-04-20T19:10:23.077Z,3.43
2019-04-20T19:12:53.498Z,3.73
2019-04-20T19:15:53.375Z,3.90
2019-04-20T19:18:17.069Z,3.77
2019-04-20T19:20:37.309Z,3.90
2019-04-20T19:23:06.253Z,4.23
2019-04-20T19:25:36.728Z,7.97
2019-04-20T19:28:05.532Z,10.10
2019-04-20T19:30:44.135Z,10.23
2019-04-20T19:33:19.123Z,22.57
2019-04-20T19:35:48.127Z,18.27
2019-04-20T19:38:13.684Z,12.10
2019-04-20T19:40:49.157Z,7.70
2019-04-20T19:43:15.942Z,6.00
2019-04-20T19:46:15.266Z,4.67
2019-04-20T19:48:20.519Z,4.33
2019-04-20T19:50:58.945Z,4.23
2019-04-20T19:53:26.555Z,4.37
2019-04-20T19:55:47.786Z,3.87
2019-04-20T19:58:19.238Z,3.87
2019-04-20T20:00:49.082Z,3.60
2019-04-20T20:03:17.425Z,3.73
2019-04-20T20:05:48.056Z,3.47
2019-04-20T20:08:20.900Z,3.83
2019-04-20T20:10:45.968Z,3.67
2019-04-20T20:13:14.927Z,3.50
2019-04-20T20:15:45.123Z,3.90
2019-04-20T20:18:29.456Z,3.57
2019-04-20T20:21:02.335Z,3.67
2019-04-20T20:23:14.284Z,3.47
2019-04-20T20:25:46.464Z,3.83
2019-04-20T20:28:25.847Z,3.23
2019-04-20T20:30:56.819Z,3.67
2019-04-20T20:33:29.394Z,3.37
2019-04-20T20:35:52.992Z,3.80
2019-04-20T20:38:19.133Z,3.57
2019-04-20T20:40:55.133Z,3.80
2019-04-20T20:43:22.977Z,3.57
2019-04-20T20:45:56.648Z,3.57
2019-04-20T20:48:34.036Z,3.50
2019-04-20T20:51:02.044Z,3.70
2019-04-20T20:53:22.973Z,3.70
2019-04-20T20:55:47.987Z,3.67
2019-04-20T20:58:21.184Z,4.00
2019-04-20T21:00:55.391Z,3.63
2019-04-20T21:03:22.496Z,3.80
2019-04-20T21:05:45.132Z,3.83
2019-04-20T21:08:13.703Z,4.17
2019-04-20T21:10:44.277Z,4.13
2019-04-20T21:13:13.866Z,4.50
2019-04-20T21:15:45.445Z,4.27
2019-04-20T21:18:34.887Z,4.57
2019-04-20T21:21:00.133Z,3.83
2019-04-20T21:23:28.681Z,4.10
2019-04-20T21:25:48.852Z,4.27
2019-04-20T21:28:15.099Z,3.73
2019-04-20T21:30:47.236Z,3.80
2019-04-20T21:33:14.927Z,3.97
2019-04-20T21:35:47.062Z,3.97
2019-04-20T21:38:15.521Z,4.27
2019-04-20T21:40:46.644Z,4.60
2019-04-20T21:43:14.632Z,5.03
2019-04-20T21:45:50.483Z,5.13
2019-04-20T21:48:35.595Z,4.47
2019-04-20T21:51:05.433Z,4.43
2019-04-20T21:53:19.556Z,4.57
2019-04-20T21:55:44.091Z,4.50
2019-04-20T21:58:12.450Z,5.27
2019-04-20T22:00:59.595Z,5.73
2019-04-20T22:03:18.645Z,5.27
2019-04-20T22:05:48.191Z,5.00
2019-04-20T22:08:18.202Z,4.90
2019-04-20T22:10:47.076Z,5.30
2019-04-20T22:13:19.359Z,5.27
2019-04-20T22:15:50.553Z,5.23
2019-04-20T22:18:20.093Z,4.97
2019-04-20T22:20:57.450Z,4.80
2019-04-20T22:23:32.790Z,4.43
2019-04-20T22:25:59.405Z,5.27
2019-04-20T22:28:16.113Z,5.00
2019-04-20T22:30:44.450Z,4.90
2019-04-20T22:33:23.708Z,5.23
2019-04-20T22:35:51.507Z,5.37
2019-04-20T22:38:20.456Z,5.30
2019-04-20T22:40:49.001Z,5.20
2019-04-20T22:43:25.520Z,5.27
2019-04-20T22:45:52.025Z,4.90
2019-04-20T22:48:19.279Z,4.90
2019-04-20T22:51:12.561Z,4.97
2019-04-20T22:53:31.093Z,5.43
2019-04-20T22:56:06.124Z,5.23
2019-04-20T22:58:33.606Z,5.77
2019-04-20T23:00:54.289Z,5.17
2019-04-20T23:03:18.760Z,5.33
2019-04-20T23:05:47.167Z,5.97
2019-04-20T23:08:16.906Z,5.47
2019-04-20T23:10:47.993Z,5.40
2019-04-20T23:13:15.650Z,5.60
2019-04-20T23:15:50.089Z,5.60
2019-04-20T23:18:14.034Z,5.60
2019-04-20T23:20:42.810Z,5.30
2019-04-20T23:23:16.967Z,5.60
2019-04-20T23:25:43.000Z,5.53
2019-04-20T23:28:14.771Z,6.07
2019-04-20T23:30:43.698Z,5.83
2019-04-20T23:33:11.821Z,5.80
2019-04-20T23:35:43.754Z,5.60
2019-04-20T23:38:14.403Z,5.50
2019-04-20T23:40:41.677Z,5.67
2019-04-20T23:43:19.033Z,5.87
2019-04-20T23:46:01.046Z,5.13
2019-04-20T23:48:39.260Z,5.27
2019-04-20T23:51:29.553Z,5.80
2019-04-20T23:53:49.181Z,5.40
2019-04-20T23:56:04.210Z,5.67
2019-04-20T23:58:38.193Z,5.80
